CheckWX is a tool to help pilots better visualize weather data.  It is not intended as a substitute for an official pre-flight weather briefing.

07:55:26 UTC

KLAN TAF
Capital Region International Airport
Lansing, Michigan, USA
KLAN 200612Z 2006/2106 25005KT P6SM VCSH SCT040 FM200800 00000KT 5SM BR SCT040 FM201300 13003KT P6SM SCT050 BKN250 FM201800 22005KT P6SM VCSH BKN035 FM210000 23007KT P6SM BKN040

Aug-20@
06:00 UTC

Aug-20 @ 06:00 UTC

Aug-20@
08:00 UTC

Aug-20 @ 08:00 UTC

KLAN 200612Z 2006/2106 25005KT P6SM VCSH SCT040
Wind
  • 250° at 5 KTS
Cloud Levels
  • Scattered at 4,000' AGL

Aug-20@
08:00 UTC

Aug-20 @ 08:00 UTC

Aug-20@
13:00 UTC

Aug-20 @ 13:00 UTC

FM200800 00000KT 5SM BR SCT040

From

From Standard forecast or significant change

Conditions
Mist
Cloud Levels
  • Scattered at 4,000' AGL

Aug-20@
13:00 UTC

Aug-20 @ 13:00 UTC

Aug-20@
18:00 UTC

Aug-20 @ 18:00 UTC

FM201300 13003KT P6SM SCT050 BKN250

From

From Standard forecast or significant change

Wind
  • 130° at 3 KTS
Cloud Levels
  • Scattered at 5,000' AGL
  • Broken at 25,000' AGL

Aug-20@
18:00 UTC

Aug-20 @ 18:00 UTC

Aug-21@
00:00 UTC

Aug-21 @ 00:00 UTC

FM201800 22005KT P6SM VCSH BKN035

From

From Standard forecast or significant change

Wind
  • 220° at 5 KTS
Cloud Levels
  • Broken at 3,500' AGL

Aug-21@
00:00 UTC

Aug-21 @ 00:00 UTC

Aug-21@
06:00 UTC

Aug-21 @ 06:00 UTC

FM210000 23007KT P6SM BKN040

From

From Standard forecast or significant change

Wind
  • 230° at 7 KTS
Cloud Levels
  • Broken at 4,000' AGL